sensor_id;sensor_type;location;lat;lon;timestamp;temperature;humidity
29031;DHT22;16122;50.236;11.734;2023-02-21T00:01:55;16.60;74.10
29031;DHT22;16122;50.236;11.734;2023-02-21T00:04:40;16.70;74.60
29031;DHT22;16122;50.236;11.734;2023-02-21T00:07:24;16.60;75.00
29031;DHT22;16122;50.236;11.734;2023-02-21T00:10:11;16.60;75.00
29031;DHT22;16122;50.236;11.734;2023-02-21T00:12:56;16.60;75.00
29031;DHT22;16122;50.236;11.734;2023-02-21T00:15:41;16.60;74.80
29031;DHT22;16122;50.236;11.734;2023-02-21T00:18:25;16.60;74.30
29031;DHT22;16122;50.236;11.734;2023-02-21T00:21:10;16.60;74.40
29031;DHT22;16122;50.236;11.734;2023-02-21T00:23:54;16.70;74.90
29031;DHT22;16122;50.236;11.734;2023-02-21T00:26:38;16.60;75.30
29031;DHT22;16122;50.236;11.734;2023-02-21T00:29:23;16.60;75.20
29031;DHT22;16122;50.236;11.734;2023-02-21T00:32:07;16.60;74.20
29031;DHT22;16122;50.236;11.734;2023-02-21T00:34:52;16.60;74.70
29031;DHT22;16122;50.236;11.734;2023-02-21T00:37:36;16.70;74.90
29031;DHT22;16122;50.236;11.734;2023-02-21T00:40:21;16.60;74.90
29031;DHT22;16122;50.236;11.734;2023-02-21T00:43:06;16.60;74.80
29031;DHT22;16122;50.236;11.734;2023-02-21T00:45:50;16.60;74.50
29031;DHT22;16122;50.236;11.734;2023-02-21T00:48:35;16.60;74.70
29031;DHT22;16122;50.236;11.734;2023-02-21T00:51:19;16.60;74.90
29031;DHT22;16122;50.236;11.734;2023-02-21T00:54:03;16.70;74.80
29031;DHT22;16122;50.236;11.734;2023-02-21T00:56:48;16.70;75.40
29031;DHT22;16122;50.236;11.734;2023-02-21T00:59:32;16.60;74.50
29031;DHT22;16122;50.236;11.734;2023-02-21T01:02:16;16.70;74.40
29031;DHT22;16122;50.236;11.734;2023-02-21T01:05:02;16.60;74.30
29031;DHT22;16122;50.236;11.734;2023-02-21T01:07:47;16.60;74.20
29031;DHT22;16122;50.236;11.734;2023-02-21T01:10:31;16.60;73.90
29031;DHT22;16122;50.236;11.734;2023-02-21T01:13:16;16.60;74.20
29031;DHT22;16122;50.236;11.734;2023-02-21T01:16:00;16.60;73.40
29031;DHT22;16122;50.236;11.734;2023-02-21T01:18:45;16.70;73.30
29031;DHT22;16122;50.236;11.734;2023-02-21T01:21:30;16.70;73.30
29031;DHT22;16122;50.236;11.734;2023-02-21T01:24:14;16.60;73.10
29031;DHT22;16122;50.236;11.734;2023-02-21T01:27:00;16.70;73.30
29031;DHT22;16122;50.236;11.734;2023-02-21T01:29:47;16.70;73.70
29031;DHT22;16122;50.236;11.734;2023-02-21T01:32:32;16.60;72.80
29031;DHT22;16122;50.236;11.734;2023-02-21T01:35:16;16.70;73.00
29031;DHT22;16122;50.236;11.734;2023-02-21T01:38:00;16.70;73.80
29031;DHT22;16122;50.236;11.734;2023-02-21T01:40:45;16.60;73.50
29031;DHT22;16122;50.236;11.734;2023-02-21T01:43:29;16.70;72.90
29031;DHT22;16122;50.236;11.734;2023-02-21T01:46:16;16.60;72.20
29031;DHT22;16122;50.236;11.734;2023-02-21T01:49:09;16.60;72.60
29031;DHT22;16122;50.236;11.734;2023-02-21T01:51:55;16.60;72.40
29031;DHT22;16122;50.236;11.734;2023-02-21T01:54:45;16.60;72.10
29031;DHT22;16122;50.236;11.734;2023-02-21T01:57:31;16.70;71.60
29031;DHT22;16122;50.236;11.734;2023-02-21T02:00:17;16.60;71.00
29031;DHT22;16122;50.236;11.734;2023-02-21T02:03:04;16.60;71.60
29031;DHT22;16122;50.236;11.734;2023-02-21T02:05:58;16.60;71.40
29031;DHT22;16122;50.236;11.734;2023-02-21T02:08:43;16.60;71.30
29031;DHT22;16122;50.236;11.734;2023-02-21T02:11:54;16.70;71.10
29031;DHT22;16122;50.236;11.734;2023-02-21T02:25:59;16.70;71.20
29031;DHT22;16122;50.236;11.734;2023-02-21T02:37:08;16.60;71.60
29031;DHT22;16122;50.236;11.734;2023-02-21T02:47:49;16.60;71.60
29031;DHT22;16122;50.236;11.734;2023-02-21T02:50:17;16.70;71.70
29031;DHT22;16122;50.236;11.734;2023-02-21T02:52:52;16.70;71.10
29031;DHT22;16122;50.236;11.734;2023-02-21T02:55:31;16.60;71.40
29031;DHT22;16122;50.236;11.734;2023-02-21T02:57:59;16.60;72.10
29031;DHT22;16122;50.236;11.734;2023-02-21T03:00:27;16.70;72.00
29031;DHT22;16122;50.236;11.734;2023-02-21T03:03:23;16.60;72.60
29031;DHT22;16122;50.236;11.734;2023-02-21T03:06:17;16.60;73.10
29031;DHT22;16122;50.236;11.734;2023-02-21T03:11:23;16.70;72.50
29031;DHT22;16122;50.236;11.734;2023-02-21T03:13:55;16.60;72.70
29031;DHT22;16122;50.236;11.734;2023-02-21T03:16:29;16.70;72.80
29031;DHT22;16122;50.236;11.734;2023-02-21T03:22:02;16.60;73.10
29031;DHT22;16122;50.236;11.734;2023-02-21T03:24:30;16.70;72.10
29031;DHT22;16122;50.236;11.734;2023-02-21T03:27:01;16.70;72.20
29031;DHT22;16122;50.236;11.734;2023-02-21T03:29:57;16.70;71.90
29031;DHT22;16122;50.236;11.734;2023-02-21T03:32:42;16.60;71.40
29031;DHT22;16122;50.236;11.734;2023-02-21T03:35:10;16.60;72.30
29031;DHT22;16122;50.236;11.734;2023-02-21T03:37:43;16.70;72.10
29031;DHT22;16122;50.236;11.734;2023-02-21T03:40:14;16.60;71.20
29031;DHT22;16122;50.236;11.734;2023-02-21T03:42:44;16.70;71.20
29031;DHT22;16122;50.236;11.734;2023-02-21T03:45:11;16.70;71.20
29031;DHT22;16122;50.236;11.734;2023-02-21T03:47:37;16.60;71.40
29031;DHT22;16122;50.236;11.734;2023-02-21T03:50:03;16.60;72.10
29031;DHT22;16122;50.236;11.734;2023-02-21T03:52:32;16.70;71.30
29031;DHT22;16122;50.236;11.734;2023-02-21T03:54:58;16.70;71.30
29031;DHT22;16122;50.236;11.734;2023-02-21T03:57:25;16.60;71.20
29031;DHT22;16122;50.236;11.734;2023-02-21T03:59:51;16.60;71.90
29031;DHT22;16122;50.236;11.734;2023-02-21T04:02:17;16.70;70.50
29031;DHT22;16122;50.236;11.734;2023-02-21T04:04:44;16.70;70.50
29031;DHT22;16122;50.236;11.734;2023-02-21T04:07:17;16.70;70.50
29031;DHT22;16122;50.236;11.734;2023-02-21T04:09:43;16.70;71.10
29031;DHT22;16122;50.236;11.734;2023-02-21T04:12:13;16.70;70.70
29031;DHT22;16122;50.236;11.734;2023-02-21T04:14:39;16.70;70.50
29031;DHT22;16122;50.236;11.734;2023-02-21T04:17:07;16.60;70.70
29031;DHT22;16122;50.236;11.734;2023-02-21T04:19:33;16.70;70.60
29031;DHT22;16122;50.236;11.734;2023-02-21T04:22:00;16.70;70.60
29031;DHT22;16122;50.236;11.734;2023-02-21T04:24:26;16.60;70.00
29031;DHT22;16122;50.236;11.734;2023-02-21T04:26:52;16.70;70.20
29031;DHT22;16122;50.236;11.734;2023-02-21T04:29:18;16.70;70.30
29031;DHT22;16122;50.236;11.734;2023-02-21T04:31:45;16.70;70.70
29031;DHT22;16122;50.236;11.734;2023-02-21T04:34:14;16.60;70.50
29031;DHT22;16122;50.236;11.734;2023-02-21T04:36:42;16.70;70.50
29031;DHT22;16122;50.236;11.734;2023-02-21T04:39:09;16.60;70.30
29031;DHT22;16122;50.236;11.734;2023-02-21T04:41:36;16.70;70.30
29031;DHT22;16122;50.236;11.734;2023-02-21T04:44:02;16.70;70.30
29031;DHT22;16122;50.236;11.734;2023-02-21T04:46:31;16.70;69.40
29031;DHT22;16122;50.236;11.734;2023-02-21T04:48:57;16.60;69.00
29031;DHT22;16122;50.236;11.734;2023-02-21T04:51:24;16.60;68.90
29031;DHT22;16122;50.236;11.734;2023-02-21T04:53:51;16.70;69.40
29031;DHT22;16122;50.236;11.734;2023-02-21T04:56:19;16.60;69.30
29031;DHT22;16122;50.236;11.734;2023-02-21T04:58:46;16.70;69.10
29031;DHT22;16122;50.236;11.734;2023-02-21T05:01:13;16.70;69.40
29031;DHT22;16122;50.236;11.734;2023-02-21T05:03:40;16.70;69.40
29031;DHT22;16122;50.236;11.734;2023-02-21T05:06:06;16.70;69.20
29031;DHT22;16122;50.236;11.734;2023-02-21T05:08:32;16.60;68.80
29031;DHT22;16122;50.236;11.734;2023-02-21T05:10:58;16.70;69.20
29031;DHT22;16122;50.236;11.734;2023-02-21T05:13:23;16.70;69.10
29031;DHT22;16122;50.236;11.734;2023-02-21T05:15:49;16.70;68.80
29031;DHT22;16122;50.236;11.734;2023-02-21T05:18:15;16.70;69.10
29031;DHT22;16122;50.236;11.734;2023-02-21T05:20:48;16.70;69.30
29031;DHT22;16122;50.236;11.734;2023-02-21T05:23:15;16.70;69.40
29031;DHT22;16122;50.236;11.734;2023-02-21T05:25:44;16.70;69.20
29031;DHT22;16122;50.236;11.734;2023-02-21T05:28:10;16.70;69.60
29031;DHT22;16122;50.236;11.734;2023-02-21T05:30:35;16.70;69.40
29031;DHT22;16122;50.236;11.734;2023-02-21T05:33:01;16.70;69.60
29031;DHT22;16122;50.236;11.734;2023-02-21T05:35:27;16.60;69.70
29031;DHT22;16122;50.236;11.734;2023-02-21T05:37:53;16.70;70.00
29031;DHT22;16122;50.236;11.734;2023-02-21T05:40:19;16.70;70.30
29031;DHT22;16122;50.236;11.734;2023-02-21T05:42:46;16.60;70.10
29031;DHT22;16122;50.236;11.734;2023-02-21T05:45:12;16.70;70.10
29031;DHT22;16122;50.236;11.734;2023-02-21T05:47:37;16.70;69.90
29031;DHT22;16122;50.236;11.734;2023-02-21T05:50:04;16.60;69.80
29031;DHT22;16122;50.236;11.734;2023-02-21T05:52:30;16.70;69.80
29031;DHT22;16122;50.236;11.734;2023-02-21T05:54:55;16.70;69.60
29031;DHT22;16122;50.236;11.734;2023-02-21T05:57:21;16.70;70.10
29031;DHT22;16122;50.236;11.734;2023-02-21T05:59:47;16.70;69.70
29031;DHT22;16122;50.236;11.734;2023-02-21T06:02:14;16.70;69.90
29031;DHT22;16122;50.236;11.734;2023-02-21T06:04:40;16.70;69.60
29031;DHT22;16122;50.236;11.734;2023-02-21T06:07:06;16.70;69.80
29031;DHT22;16122;50.236;11.734;2023-02-21T06:09:32;16.70;69.90
29031;DHT22;16122;50.236;11.734;2023-02-21T06:11:58;16.70;70.10
29031;DHT22;16122;50.236;11.734;2023-02-21T06:14:25;16.60;69.70
29031;DHT22;16122;50.236;11.734;2023-02-21T06:16:51;16.70;69.80
29031;DHT22;16122;50.236;11.734;2023-02-21T06:19:17;16.70;69.80
29031;DHT22;16122;50.236;11.734;2023-02-21T06:21:44;16.70;69.50
29031;DHT22;16122;50.236;11.734;2023-02-21T06:24:11;16.60;69.80
29031;DHT22;16122;50.236;11.734;2023-02-21T06:26:37;16.70;69.80
29031;DHT22;16122;50.236;11.734;2023-02-21T06:29:05;16.70;69.80
29031;DHT22;16122;50.236;11.734;2023-02-21T06:31:32;16.60;69.00
29031;DHT22;16122;50.236;11.734;2023-02-21T06:33:58;16.70;69.90
29031;DHT22;16122;50.236;11.734;2023-02-21T06:36:26;16.70;69.70
29031;DHT22;16122;50.236;11.734;2023-02-21T06:38:53;16.70;69.60
29031;DHT22;16122;50.236;11.734;2023-02-21T06:41:28;16.70;69.70
29031;DHT22;16122;50.236;11.734;2023-02-21T06:43:56;16.70;70.00
29031;DHT22;16122;50.236;11.734;2023-02-21T06:46:25;16.60;69.90
29031;DHT22;16122;50.236;11.734;2023-02-21T06:48:51;16.70;69.90
29031;DHT22;16122;50.236;11.734;2023-02-21T06:51:17;16.70;70.20
29031;DHT22;16122;50.236;11.734;2023-02-21T06:53:47;16.70;70.60
29031;DHT22;16122;50.236;11.734;2023-02-21T06:56:14;16.70;70.90
29031;DHT22;16122;50.236;11.734;2023-02-21T06:58:40;16.70;70.90
29031;DHT22;16122;50.236;11.734;2023-02-21T07:01:05;16.60;71.10
29031;DHT22;16122;50.236;11.734;2023-02-21T07:03:31;16.70;71.70
29031;DHT22;16122;50.236;11.734;2023-02-21T07:05:57;16.60;71.80
29031;DHT22;16122;50.236;11.734;2023-02-21T07:08:23;16.70;72.90
29031;DHT22;16122;50.236;11.734;2023-02-21T07:10:50;16.70;74.30
29031;DHT22;16122;50.236;11.734;2023-02-21T07:13:16;16.70;74.20
29031;DHT22;16122;50.236;11.734;2023-02-21T07:15:42;16.60;73.90
29031;DHT22;16122;50.236;11.734;2023-02-21T07:18:08;16.60;72.40
29031;DHT22;16122;50.236;11.734;2023-02-21T07:20:34;16.70;72.00
29031;DHT22;16122;50.236;11.734;2023-02-21T07:22:59;16.70;71.90
29031;DHT22;16122;50.236;11.734;2023-02-21T07:25:25;16.60;71.80
29031;DHT22;16122;50.236;11.734;2023-02-21T07:27:51;16.60;71.60
29031;DHT22;16122;50.236;11.734;2023-02-21T07:30:20;16.70;71.90
29031;DHT22;16122;50.236;11.734;2023-02-21T07:32:46;16.70;72.00
29031;DHT22;16122;50.236;11.734;2023-02-21T07:35:12;16.70;72.30
29031;DHT22;16122;50.236;11.734;2023-02-21T07:37:38;16.60;73.10
29031;DHT22;16122;50.236;11.734;2023-02-21T07:40:04;16.70;73.20
29031;DHT22;16122;50.236;11.734;2023-02-21T07:42:33;16.60;73.10
29031;DHT22;16122;50.236;11.734;2023-02-21T07:44:59;16.70;73.10
29031;DHT22;16122;50.236;11.734;2023-02-21T07:47:26;16.60;73.10
29031;DHT22;16122;50.236;11.734;2023-02-21T07:49:52;16.60;72.90
29031;DHT22;16122;50.236;11.734;2023-02-21T07:52:22;16.70;73.30
29031;DHT22;16122;50.236;11.734;2023-02-21T07:54:48;16.70;73.80
29031;DHT22;16122;50.236;11.734;2023-02-21T07:57:15;16.70;72.10
29031;DHT22;16122;50.236;11.734;2023-02-21T07:59:41;16.70;65.50
29031;DHT22;16122;50.236;11.734;2023-02-21T08:02:08;16.70;65.00
29031;DHT22;16122;50.236;11.734;2023-02-21T08:04:34;16.70;65.00
29031;DHT22;16122;50.236;11.734;2023-02-21T08:07:00;16.70;64.90
29031;DHT22;16122;50.236;11.734;2023-02-21T08:09:26;16.70;64.60
29031;DHT22;16122;50.236;11.734;2023-02-21T08:11:52;16.70;64.60
29031;DHT22;16122;50.236;11.734;2023-02-21T08:14:18;16.70;64.60
29031;DHT22;16122;50.236;11.734;2023-02-21T08:16:44;16.70;64.50
29031;DHT22;16122;50.236;11.734;2023-02-21T08:19:10;16.70;64.60
29031;DHT22;16122;50.236;11.734;2023-02-21T08:21:36;16.70;64.70
29031;DHT22;16122;50.236;11.734;2023-02-21T08:24:02;16.70;64.60
29031;DHT22;16122;50.236;11.734;2023-02-21T08:26:28;16.70;64.50
29031;DHT22;16122;50.236;11.734;2023-02-21T08:28:53;16.70;64.60
29031;DHT22;16122;50.236;11.734;2023-02-21T08:31:20;16.60;64.40
29031;DHT22;16122;50.236;11.734;2023-02-21T08:33:46;16.70;64.50
29031;DHT22;16122;50.236;11.734;2023-02-21T08:36:12;16.70;64.50
29031;DHT22;16122;50.236;11.734;2023-02-21T08:38:38;16.70;64.60
29031;DHT22;16122;50.236;11.734;2023-02-21T08:41:04;16.70;64.50
29031;DHT22;16122;50.236;11.734;2023-02-21T08:43:31;16.70;64.50
29031;DHT22;16122;50.236;11.734;2023-02-21T08:45:57;16.70;64.60
29031;DHT22;16122;50.236;11.734;2023-02-21T08:48:24;16.70;64.40
29031;DHT22;16122;50.236;11.734;2023-02-21T08:50:50;16.70;65.10
29031;DHT22;16122;50.236;11.734;2023-02-21T08:53:18;16.70;64.30
29031;DHT22;16122;50.236;11.734;2023-02-21T08:55:44;16.70;64.30
29031;DHT22;16122;50.236;11.734;2023-02-21T08:58:11;16.70;64.30
29031;DHT22;16122;50.236;11.734;2023-02-21T09:00:37;16.70;64.30
29031;DHT22;16122;50.236;11.734;2023-02-21T09:03:03;16.70;64.40
29031;DHT22;16122;50.236;11.734;2023-02-21T09:05:30;16.80;64.60
29031;DHT22;16122;50.236;11.734;2023-02-21T09:07:59;16.70;64.30
29031;DHT22;16122;50.236;11.734;2023-02-21T09:10:27;16.70;64.10
29031;DHT22;16122;50.236;11.734;2023-02-21T09:12:53;16.70;64.30
29031;DHT22;16122;50.236;11.734;2023-02-21T09:15:19;16.70;64.40
29031;DHT22;16122;50.236;11.734;2023-02-21T09:17:46;16.80;64.30
29031;DHT22;16122;50.236;11.734;2023-02-21T09:20:17;16.80;64.50
29031;DHT22;16122;50.236;11.734;2023-02-21T09:22:45;16.70;64.00
29031;DHT22;16122;50.236;11.734;2023-02-21T09:25:14;16.70;64.20
29031;DHT22;16122;50.236;11.734;2023-02-21T09:27:40;16.70;64.00
29031;DHT22;16122;50.236;11.734;2023-02-21T09:30:12;16.70;64.10
29031;DHT22;16122;50.236;11.734;2023-02-21T09:32:40;16.70;64.20
29031;DHT22;16122;50.236;11.734;2023-02-21T09:35:07;16.70;64.10
29031;DHT22;16122;50.236;11.734;2023-02-21T09:37:37;16.80;64.00
29031;DHT22;16122;50.236;11.734;2023-02-21T09:40:06;16.80;64.30
29031;DHT22;16122;50.236;11.734;2023-02-21T09:42:32;16.80;64.10
29031;DHT22;16122;50.236;11.734;2023-02-21T09:45:01;16.60;64.00
29031;DHT22;16122;50.236;11.734;2023-02-21T09:47:30;16.80;64.10
29031;DHT22;16122;50.236;11.734;2023-02-21T09:50:05;16.80;64.10
29031;DHT22;16122;50.236;11.734;2023-02-21T09:52:34;16.80;63.90
29031;DHT22;16122;50.236;11.734;2023-02-21T09:57:37;16.80;63.60
29031;DHT22;16122;50.236;11.734;2023-02-21T10:00:20;16.80;64.50
29031;DHT22;16122;50.236;11.734;2023-02-21T10:06:10;16.80;64.90
29031;DHT22;16122;50.236;11.734;2023-02-21T10:08:42;16.80;65.00
29031;DHT22;16122;50.236;11.734;2023-02-21T10:11:21;16.80;65.00
29031;DHT22;16122;50.236;11.734;2023-02-21T10:14:01;16.70;64.70
29031;DHT22;16122;50.236;11.734;2023-02-21T10:16:41;16.80;64.70
29031;DHT22;16122;50.236;11.734;2023-02-21T10:21:47;16.80;64.70
29031;DHT22;16122;50.236;11.734;2023-02-21T10:24:18;16.80;64.80
29031;DHT22;16122;50.236;11.734;2023-02-21T10:29:24;16.80;64.70
29031;DHT22;16122;50.236;11.734;2023-02-21T10:31:55;16.90;64.90
29031;DHT22;16122;50.236;11.734;2023-02-21T10:34:27;16.90;64.90
29031;DHT22;16122;50.236;11.734;2023-02-21T10:39:54;16.80;64.80
29031;DHT22;16122;50.236;11.734;2023-02-21T10:42:39;16.90;65.00
29031;DHT22;16122;50.236;11.734;2023-02-21T10:45:08;16.80;64.80
29031;DHT22;16122;50.236;11.734;2023-02-21T10:48:03;16.90;64.90
29031;DHT22;16122;50.236;11.734;2023-02-21T10:53:25;16.90;65.20
29031;DHT22;16122;50.236;11.734;2023-02-21T10:58:56;16.90;65.40
29031;DHT22;16122;50.236;11.734;2023-02-21T11:04:26;16.90;65.70
29031;DHT22;16122;50.236;11.734;2023-02-21T11:12:21;16.90;66.30
29031;DHT22;16122;50.236;11.734;2023-02-21T11:17:29;16.90;66.00
29031;DHT22;16122;50.236;11.734;2023-02-21T11:20:14;16.90;66.00
29031;DHT22;16122;50.236;11.734;2023-02-21T11:22:46;17.00;65.60
29031;DHT22;16122;50.236;11.734;2023-02-21T11:25:30;16.90;65.60
29031;DHT22;16122;50.236;11.734;2023-02-21T11:30:30;16.90;66.00
29031;DHT22;16122;50.236;11.734;2023-02-21T11:32:58;17.00;65.90
29031;DHT22;16122;50.236;11.734;2023-02-21T11:35:36;16.90;65.80
29031;DHT22;16122;50.236;11.734;2023-02-21T11:38:06;16.90;65.50
29031;DHT22;16122;50.236;11.734;2023-02-21T11:40:43;16.90;66.10
29031;DHT22;16122;50.236;11.734;2023-02-21T11:43:19;16.90;66.10
29031;DHT22;16122;50.236;11.734;2023-02-21T11:46:16;16.90;65.80
29031;DHT22;16122;50.236;11.734;2023-02-21T11:48:53;16.90;66.10
29031;DHT22;16122;50.236;11.734;2023-02-21T11:51:50;16.90;65.50
29031;DHT22;16122;50.236;11.734;2023-02-21T11:54:26;16.90;66.20
29031;DHT22;16122;50.236;11.734;2023-02-21T11:57:21;16.90;66.40
29031;DHT22;16122;50.236;11.734;2023-02-21T12:10:32;16.90;66.40
29031;DHT22;16122;50.236;11.734;2023-02-21T12:32:50;16.90;65.70
29031;DHT22;16122;50.236;11.734;2023-02-21T12:38:55;16.90;66.20
29031;DHT22;16122;50.236;11.734;2023-02-21T12:52:18;16.80;66.20
29031;DHT22;16122;50.236;11.734;2023-02-21T12:57:31;16.80;66.10
29031;DHT22;16122;50.236;11.734;2023-02-21T13:00:02;16.80;66.20
29031;DHT22;16122;50.236;11.734;2023-02-21T13:02:41;16.80;66.10
29031;DHT22;16122;50.236;11.734;2023-02-21T13:05:18;16.90;66.50
29031;DHT22;16122;50.236;11.734;2023-02-21T13:07:55;16.90;67.00
29031;DHT22;16122;50.236;11.734;2023-02-21T13:10:38;16.80;66.20
29031;DHT22;16122;50.236;11.734;2023-02-21T13:13:12;16.80;66.20
29031;DHT22;16122;50.236;11.734;2023-02-21T13:15:40;16.80;66.10
29031;DHT22;16122;50.236;11.734;2023-02-21T13:18:22;16.80;66.00
29031;DHT22;16122;50.236;11.734;2023-02-21T13:20:59;16.80;66.00
29031;DHT22;16122;50.236;11.734;2023-02-21T13:23:48;16.80;65.70
29031;DHT22;16122;50.236;11.734;2023-02-21T13:29:41;16.80;66.10
29031;DHT22;16122;50.236;11.734;2023-02-21T13:32:12;16.80;66.10
29031;DHT22;16122;50.236;11.734;2023-02-21T13:34:44;16.80;66.10
29031;DHT22;16122;50.236;11.734;2023-02-21T13:37:18;16.80;66.20
29031;DHT22;16122;50.236;11.734;2023-02-21T13:40:06;16.80;66.00
29031;DHT22;16122;50.236;11.734;2023-02-21T13:42:41;16.80;66.20
29031;DHT22;16122;50.236;11.734;2023-02-21T13:45:17;16.90;66.20
29031;DHT22;16122;50.236;11.734;2023-02-21T13:53:24;16.80;65.80
29031;DHT22;16122;50.236;11.734;2023-02-21T13:58:32;16.80;66.10
29031;DHT22;16122;50.236;11.734;2023-02-21T14:03:43;16.80;66.10
29031;DHT22;16122;50.236;11.734;2023-02-21T14:08:43;16.70;66.00
29031;DHT22;16122;50.236;11.734;2023-02-21T14:11:15;16.80;66.40
29031;DHT22;16122;50.236;11.734;2023-02-21T14:13:56;16.80;66.20
29031;DHT22;16122;50.236;11.734;2023-02-21T14:16:28;16.80;66.10
29031;DHT22;16122;50.236;11.734;2023-02-21T14:19:00;16.70;66.00
29031;DHT22;16122;50.236;11.734;2023-02-21T14:24:12;16.80;66.00
29031;DHT22;16122;50.236;11.734;2023-02-21T14:26:49;16.80;66.10
29031;DHT22;16122;50.236;11.734;2023-02-21T14:37:37;16.70;66.00
29031;DHT22;16122;50.236;11.734;2023-02-21T15:01:41;16.70;65.70
29031;DHT22;16122;50.236;11.734;2023-02-21T15:07:03;16.60;65.70
29031;DHT22;16122;50.236;11.734;2023-02-21T15:09:32;16.70;65.50
29031;DHT22;16122;50.236;11.734;2023-02-21T15:11:58;16.70;65.80
29031;DHT22;16122;50.236;11.734;2023-02-21T15:14:30;16.70;66.10
29031;DHT22;16122;50.236;11.734;2023-02-21T15:17:29;16.70;66.00
29031;DHT22;16122;50.236;11.734;2023-02-21T15:20:24;16.70;65.90
29031;DHT22;16122;50.236;11.734;2023-02-21T15:23:20;16.70;66.10
29031;DHT22;16122;50.236;11.734;2023-02-21T15:25:53;16.70;66.10
29031;DHT22;16122;50.236;11.734;2023-02-21T15:28:30;16.60;65.90
29031;DHT22;16122;50.236;11.734;2023-02-21T15:31:00;16.70;65.90
29031;DHT22;16122;50.236;11.734;2023-02-21T15:33:33;16.80;66.20
29031;DHT22;16122;50.236;11.734;2023-02-21T15:44:18;16.70;68.50
29031;DHT22;16122;50.236;11.734;2023-02-21T15:46:49;16.70;69.20
29031;DHT22;16122;50.236;11.734;2023-02-21T15:49:41;16.70;69.40
29031;DHT22;16122;50.236;11.734;2023-02-21T16:03:33;16.70;70.10
29031;DHT22;16122;50.236;11.734;2023-02-21T16:08:49;16.70;70.60
29031;DHT22;16122;50.236;11.734;2023-02-21T16:11:15;16.60;70.50
29031;DHT22;16122;50.236;11.734;2023-02-21T16:13:41;16.70;70.80
29031;DHT22;16122;50.236;11.734;2023-02-21T16:16:08;16.70;70.80
29031;DHT22;16122;50.236;11.734;2023-02-21T16:18:34;16.70;71.20
29031;DHT22;16122;50.236;11.734;2023-02-21T16:21:03;16.70;70.90
29031;DHT22;16122;50.236;11.734;2023-02-21T16:23:34;16.80;71.10
29031;DHT22;16122;50.236;11.734;2023-02-21T16:26:23;16.70;70.90
29031;DHT22;16122;50.236;11.734;2023-02-21T16:28:54;16.70;70.90
29031;DHT22;16122;50.236;11.734;2023-02-21T16:31:31;16.80;71.10
29031;DHT22;16122;50.236;11.734;2023-02-21T16:33:58;16.80;71.00
29031;DHT22;16122;50.236;11.734;2023-02-21T16:36:29;16.80;70.60
29031;DHT22;16122;50.236;11.734;2023-02-21T16:38:56;16.80;71.10
29031;DHT22;16122;50.236;11.734;2023-02-21T16:41:23;16.70;71.80
29031;DHT22;16122;50.236;11.734;2023-02-21T16:43:49;16.80;72.30
29031;DHT22;16122;50.236;11.734;2023-02-21T16:46:23;16.80;72.30
29031;DHT22;16122;50.236;11.734;2023-02-21T16:48:52;16.80;72.50
29031;DHT22;16122;50.236;11.734;2023-02-21T16:51:18;16.80;72.90
29031;DHT22;16122;50.236;11.734;2023-02-21T16:53:45;16.80;72.80
29031;DHT22;16122;50.236;11.734;2023-02-21T16:56:12;16.80;72.90
29031;DHT22;16122;50.236;11.734;2023-02-21T16:58:41;16.80;72.90
29031;DHT22;16122;50.236;11.734;2023-02-21T17:01:13;16.80;73.50
29031;DHT22;16122;50.236;11.734;2023-02-21T17:03:40;16.80;73.70
29031;DHT22;16122;50.236;11.734;2023-02-21T17:06:07;16.80;74.70
29031;DHT22;16122;50.236;11.734;2023-02-21T17:08:35;16.90;74.30
29031;DHT22;16122;50.236;11.734;2023-02-21T17:11:01;16.80;74.20
29031;DHT22;16122;50.236;11.734;2023-02-21T17:13:26;16.80;74.20
29031;DHT22;16122;50.236;11.734;2023-02-21T17:15:52;16.90;74.40
29031;DHT22;16122;50.236;11.734;2023-02-21T17:18:18;16.90;74.50
29031;DHT22;16122;50.236;11.734;2023-02-21T17:20:44;16.80;74.50
29031;DHT22;16122;50.236;11.734;2023-02-21T17:23:10;16.80;74.70
29031;DHT22;16122;50.236;11.734;2023-02-21T17:25:36;16.90;74.90
29031;DHT22;16122;50.236;11.734;2023-02-21T17:28:02;16.90;74.50
29031;DHT22;16122;50.236;11.734;2023-02-21T17:30:28;16.80;74.30
29031;DHT22;16122;50.236;11.734;2023-02-21T17:32:56;16.90;74.80
29031;DHT22;16122;50.236;11.734;2023-02-21T17:35:22;16.90;75.00
29031;DHT22;16122;50.236;11.734;2023-02-21T17:37:49;16.90;75.90
29031;DHT22;16122;50.236;11.734;2023-02-21T17:40:18;16.80;74.50
29031;DHT22;16122;50.236;11.734;2023-02-21T17:42:44;16.90;74.60
29031;DHT22;16122;50.236;11.734;2023-02-21T17:45:10;16.90;74.60
29031;DHT22;16122;50.236;11.734;2023-02-21T17:47:36;16.90;74.70
29031;DHT22;16122;50.236;11.734;2023-02-21T17:50:03;16.80;74.70
29031;DHT22;16122;50.236;11.734;2023-02-21T17:52:30;16.90;75.10
29031;DHT22;16122;50.236;11.734;2023-02-21T17:54:56;16.90;74.90
29031;DHT22;16122;50.236;11.734;2023-02-21T17:57:22;16.90;75.20
29031;DHT22;16122;50.236;11.734;2023-02-21T17:59:48;16.90;75.20
29031;DHT22;16122;50.236;11.734;2023-02-21T18:02:14;16.90;75.60
29031;DHT22;16122;50.236;11.734;2023-02-21T18:04:40;16.90;75.70
29031;DHT22;16122;50.236;11.734;2023-02-21T18:07:06;16.90;75.80
29031;DHT22;16122;50.236;11.734;2023-02-21T18:09:32;16.90;76.20
29031;DHT22;16122;50.236;11.734;2023-02-21T18:11:59;16.80;76.50
29031;DHT22;16122;50.236;11.734;2023-02-21T18:14:26;16.80;77.10
29031;DHT22;16122;50.236;11.734;2023-02-21T18:16:55;16.80;79.20
29031;DHT22;16122;50.236;11.734;2023-02-21T18:19:25;16.80;81.40
29031;DHT22;16122;50.236;11.734;2023-02-21T18:21:51;16.90;77.40
29031;DHT22;16122;50.236;11.734;2023-02-21T18:24:17;16.80;77.40
29031;DHT22;16122;50.236;11.734;2023-02-21T18:26:44;16.80;77.00
29031;DHT22;16122;50.236;11.734;2023-02-21T18:29:11;16.90;76.50
29031;DHT22;16122;50.236;11.734;2023-02-21T18:31:36;16.90;76.60
29031;DHT22;16122;50.236;11.734;2023-02-21T18:34:03;16.90;76.40
29031;DHT22;16122;50.236;11.734;2023-02-21T18:36:30;16.90;76.60
29031;DHT22;16122;50.236;11.734;2023-02-21T18:38:56;16.90;76.60
29031;DHT22;16122;50.236;11.734;2023-02-21T18:41:22;16.90;76.70
29031;DHT22;16122;50.236;11.734;2023-02-21T18:43:49;16.90;77.10
29031;DHT22;16122;50.236;11.734;2023-02-21T18:46:17;16.90;77.20
29031;DHT22;16122;50.236;11.734;2023-02-21T18:48:45;16.90;77.50
29031;DHT22;16122;50.236;11.734;2023-02-21T18:51:13;16.80;78.30
29031;DHT22;16122;50.236;11.734;2023-02-21T18:53:42;16.90;80.20